Time;durP1;ratioP1;P1;durP2;ratioP2;P2;SDS_P1;SDS_P2;PMS_P1;PMS_P2;Temp;Humidity;BMP_temperature;BMP_pressure;BME280_temperature;BME280_humidity;BME280_pressure;Samples;Min_cycle;Max_cycle;Signal;HPM_P1;HPM_P2
2024/01/25 00:00:43;;;;;;;0.22;0.22;;;;;;;7.19;61.56;98116.00;4973464;28;20429;-76
2024/01/25 00:03:11;;;;;;;1.02;1.02;;;;;;;7.18;61.55;98119.66;4975800;28;20051;-76
2024/01/25 00:05:39;;;;;;;0.73;0.73;;;;;;;7.18;61.36;98112.53;4975018;28;20038;-76
2024/01/25 00:08:07;;;;;;;1.00;1.00;;;;;;;7.22;61.06;98107.75;4977205;28;20054;-75
2024/01/25 00:10:34;;;;;;;1.10;1.10;;;;;;;7.24;60.62;98111.91;4972082;28;20051;-76
2024/01/25 00:13:03;;;;;;;0.30;0.30;;;;;;;7.23;60.66;98112.88;4981561;28;20425;-76
2024/01/25 00:15:31;;;;;;;0.32;0.32;;;;;;;7.22;60.43;98119.19;4978888;28;20453;-76
2024/01/25 00:17:59;;;;;;;1.00;1.00;;;;;;;7.29;60.02;98124.69;4976178;28;20090;-77
2024/01/25 00:20:26;;;;;;;1.35;1.35;;;;;;;7.28;59.96;98121.19;4978755;28;20046;-77
2024/01/25 00:22:54;;;;;;;1.13;1.13;;;;;;;7.26;59.90;98109.94;4970279;28;20042;-76
2024/01/25 00:25:22;;;;;;;0.52;0.52;;;;;;;7.32;59.92;98119.88;4955440;28;20505;-76
2024/01/25 00:27:49;;;;;;;0.80;0.80;;;;;;;7.32;59.94;98103.13;4974036;28;20068;-75
2024/01/25 00:30:18;;;;;;;0.93;0.93;;;;;;;7.28;60.10;98115.88;4982648;28;20050;-75
2024/01/25 00:32:46;;;;;;;1.15;1.15;;;;;;;7.30;60.12;98110.41;4979407;28;20049;-75
2024/01/25 00:35:15;;;;;;;0.30;0.30;;;;;;;7.27;60.13;98106.25;4971769;28;20469;-76
2024/01/25 00:37:43;;;;;;;1.20;1.20;;;;;;;7.26;60.55;98111.75;4985794;28;20053;-75
2024/01/25 00:40:13;;;;;;;0.77;0.77;;;;;;;7.24;60.63;98103.94;4978349;28;20046;-75
2024/01/25 00:42:43;;;;;;;0.80;0.80;;;;;;;7.20;60.63;98105.25;4971333;28;20041;-74
2024/01/25 00:45:11;;;;;;;1.02;1.02;;;;;;;7.23;60.85;98101.44;4977352;28;20524;-74
2024/01/25 00:47:40;;;;;;;1.13;1.13;;;;;;;7.20;60.98;98093.78;4973241;28;20482;-74
2024/01/25 00:50:08;;;;;;;1.02;1.02;;;;;;;7.21;61.08;98101.59;4975746;28;20046;-74
2024/01/25 00:52:36;;;;;;;0.98;0.98;;;;;;;7.15;61.47;98099.59;4975021;28;20046;-74
2024/01/25 00:55:05;;;;;;;0.85;0.85;;;;;;;7.23;61.33;98106.75;4981046;28;20321;-74
2024/01/25 00:57:33;;;;;;;0.88;0.88;;;;;;;7.16;61.60;98097.78;4978683;28;20038;-74
2024/01/25 01:00:02;;;;;;;0.93;0.93;;;;;;;7.11;61.69;98095.59;4983775;28;20054;-74
2024/01/25 01:02:31;;;;;;;0.95;0.95;;;;;;;7.11;61.66;98094.75;4976126;28;20047;-74
2024/01/25 01:05:01;;;;;;;0.82;0.82;;;;;;;7.10;61.86;98099.22;4974846;28;20137;-74
2024/01/25 01:07:30;;;;;;;0.95;0.95;;;;;;;7.08;62.02;98098.56;4984117;28;20038;-74
2024/01/25 01:09:58;;;;;;;0.70;0.70;;;;;;;7.08;62.00;98090.59;4982020;28;20486;-74
2024/01/25 01:12:25;;;;;;;1.08;1.08;;;;;;;7.09;62.29;98096.72;4977934;28;20065;-75
2024/01/25 01:14:53;;;;;;;0.98;0.98;;;;;;;7.07;62.74;98088.09;4985105;28;20054;-75
2024/01/25 01:17:20;;;;;;;0.95;0.95;;;;;;;7.03;62.93;98095.56;4974223;28;20483;-77
2024/01/25 01:19:48;;;;;;;1.00;1.00;;;;;;;7.07;62.58;98088.09;4979679;28;20069;-77
2024/01/25 01:22:18;;;;;;;1.00;1.00;;;;;;;7.01;62.69;98100.19;4972422;28;20497;-77
2024/01/25 01:24:46;;;;;;;1.10;1.10;;;;;;;7.04;62.49;98101.72;4974670;28;20048;-76
2024/01/25 01:27:14;;;;;;;1.00;1.00;;;;;;;7.00;62.43;98102.03;4967123;28;20039;-76
2024/01/25 01:29:42;;;;;;;1.05;1.05;;;;;;;7.06;62.22;98102.38;4970515;28;20042;-76
2024/01/25 01:32:09;;;;;;;1.05;1.05;;;;;;;7.01;62.57;98097.53;4968986;28;20077;-76
2024/01/25 01:34:37;;;;;;;0.75;0.75;;;;;;;7.02;62.35;98090.41;4977023;28;20038;-76
2024/01/25 01:37:04;;;;;;;1.23;1.23;;;;;;;6.99;62.75;98087.09;4976647;28;20057;-75
2024/01/25 01:39:34;;;;;;;0.80;0.80;;;;;;;6.97;62.90;98085.56;4970939;28;20046;-77
2024/01/25 01:42:01;;;;;;;0.40;0.40;;;;;;;6.92;63.07;98091.38;4971628;28;20449;-77
2024/01/25 01:44:29;;;;;;;0.70;0.70;;;;;;;6.89;63.54;98099.66;4975348;28;20038;-77
2024/01/25 01:46:56;;;;;;;1.00;1.00;;;;;;;6.88;63.45;98090.03;4970078;28;20047;-76
2024/01/25 01:49:24;;;;;;;0.50;0.50;;;;;;;6.92;62.71;98090.53;4980649;28;20418;-75
2024/01/25 01:51:52;;;;;;;1.02;1.02;;;;;;;6.99;62.59;98094.22;4970983;28;20494;-77
2024/01/25 01:54:20;;;;;;;0.88;0.88;;;;;;;6.96;63.19;98091.88;4972858;28;20039;-76
2024/01/25 01:56:49;;;;;;;0.40;0.40;;;;;;;6.94;62.84;98086.75;4973109;28;20414;-76
2024/01/25 01:59:18;;;;;;;0.47;0.47;;;;;;;6.98;62.92;98089.88;4970599;28;20371;-75
2024/01/25 02:01:45;;;;;;;0.43;0.43;;;;;;;6.94;63.06;98094.72;4973671;28;20418;-76
2024/01/25 02:04:13;;;;;;;0.40;0.40;;;;;;;6.94;63.21;98088.56;4972368;28;20497;-77
2024/01/25 02:06:43;;;;;;;0.77;0.77;;;;;;;7.04;62.40;98096.41;4987169;28;20046;-77
2024/01/25 02:09:11;;;;;;;1.38;1.38;;;;;;;7.02;62.50;98095.72;4975511;28;20501;-76
2024/01/25 02:11:38;;;;;;;0.93;0.93;;;;;;;7.00;62.67;98096.72;4969868;28;20039;-76
2024/01/25 02:14:10;;;;;;;0.88;0.88;;;;;;;6.99;62.92;98088.91;4977789;28;20047;-76
2024/01/25 02:16:38;;;;;;;0.88;0.88;;;;;;;6.98;63.29;98090.72;4972060;28;20060;-76
2024/01/25 02:19:06;;;;;;;0.90;0.90;;;;;;;6.98;63.26;98095.19;4973569;28;20047;-76
2024/01/25 02:21:34;;;;;;;1.67;1.67;;;;;;;6.95;63.75;98103.50;4973548;28;20135;-76
2024/01/25 02:24:03;;;;;;;0.95;0.95;;;;;;;6.95;63.81;98101.69;4973250;28;20067;-75
2024/01/25 02:26:30;;;;;;;0.93;0.93;;;;;;;6.97;64.09;98114.75;4985990;28;20046;-76
2024/01/25 02:28:58;;;;;;;0.40;0.40;;;;;;;6.97;63.97;98120.91;4973506;28;20426;-76
2024/01/25 02:31:26;;;;;;;0.30;0.30;;;;;;;6.99;63.96;98134.00;4976016;28;20385;-76
2024/01/25 02:33:53;;;;;;;1.35;1.35;;;;;;;7.00;63.74;98127.72;4969807;28;20073;-76
2024/01/25 02:36:23;;;;;;;0.60;0.60;;;;;;;6.97;64.58;98130.69;4975554;28;20054;-76
2024/01/25 02:38:50;;;;;;;0.80;0.80;;;;;;;7.00;65.54;98120.59;4974404;28;20125;-74
2024/01/25 02:41:19;;;;;;;0.50;0.50;;;;;;;7.09;65.53;98120.63;4976406;28;20408;-76
2024/01/25 02:43:47;;;;;;;1.00;1.00;;;;;;;6.96;66.38;98118.41;4972052;28;20090;-79
2024/01/25 02:46:14;;;;;;;1.23;1.23;;;;;;;6.95;66.25;98104.34;4980207;28;20589;-75
2024/01/25 02:48:42;;;;;;;0.73;0.73;;;;;;;6.87;66.60;98098.97;4968921;28;20106;-77
2024/01/25 02:51:10;;;;;;;0.30;0.30;;;;;;;6.79;66.61;98093.63;4954582;28;20410;-77
2024/01/25 02:53:37;;;;;;;1.15;1.15;;;;;;;6.77;66.93;98106.22;4983168;28;20043;-78
2024/01/25 02:56:06;;;;;;;1.20;1.20;;;;;;;6.82;66.25;98111.88;4971785;28;20129;-79
2024/01/25 02:58:35;;;;;;;1.02;1.02;;;;;;;6.86;66.35;98123.81;4967175;28;20070;-78
2024/01/25 03:01:03;;;;;;;0.98;0.98;;;;;;;6.91;66.39;98121.53;4974398;28;20065;-76
2024/01/25 03:03:30;;;;;;;0.52;0.52;;;;;;;7.02;65.32;98119.59;4994412;28;20721;-75
2024/01/25 03:05:58;;;;;;;0.50;0.50;;;;;;;6.97;65.23;98123.56;4976833;28;20486;-76
2024/01/25 03:08:26;;;;;;;0.80;0.80;;;;;;;6.93;65.07;98111.63;4977369;28;20053;-75
2024/01/25 03:10:53;;;;;;;1.17;1.17;;;;;;;6.88;65.28;98108.59;4983561;28;20042;-77
2024/01/25 03:13:21;;;;;;;1.05;1.05;;;;;;;6.82;65.59;98125.16;4980810;28;20046;-76
2024/01/25 03:15:50;;;;;;;0.70;0.70;;;;;;;6.82;64.77;98119.00;4988104;28;20043;-74
2024/01/25 03:18:18;;;;;;;0.80;0.80;;;;;;;6.81;64.88;98130.63;4977246;28;20042;-74
2024/01/25 03:20:46;;;;;;;0.88;0.88;;;;;;;6.83;64.24;98112.72;4961262;28;20058;-76
2024/01/25 03:23:14;;;;;;;0.57;0.57;;;;;;;6.82;64.67;98116.38;4975711;28;20041;-76
2024/01/25 03:25:41;;;;;;;0.50;0.35;;;;;;;6.91;64.06;98118.06;4982456;28;20394;-76
2024/01/25 03:28:11;;;;;;;1.00;1.00;;;;;;;6.87;63.85;98125.50;4975728;28;20050;-76
2024/01/25 03:30:38;;;;;;;0.52;0.52;;;;;;;6.82;64.14;98130.47;4976660;28;20462;-75
2024/01/25 03:33:07;;;;;;;0.80;0.80;;;;;;;6.81;63.97;98117.34;4975071;28;20085;-75
2024/01/25 03:35:35;;;;;;;1.23;1.23;;;;;;;6.85;63.20;98116.84;4982118;28;20068;-75
2024/01/25 03:38:03;;;;;;;1.15;1.15;;;;;;;6.82;63.55;98121.66;4977551;28;20097;-75
2024/01/25 03:40:30;;;;;;;0.38;0.38;;;;;;;6.81;63.36;98120.00;4973973;28;20397;-75
2024/01/25 03:42:58;;;;;;;1.15;1.15;;;;;;;6.82;62.85;98119.00;4977367;28;20054;-76
2024/01/25 03:45:45;;;;;;;0.88;0.88;;;;;;;6.81;62.72;98122.66;4973060;28;20557;-73
2024/01/25 03:48:14;;;;;;;1.00;1.00;;;;;;;6.89;62.59;98110.25;4977947;28;20047;-76
2024/01/25 03:50:42;;;;;;;1.33;1.30;;;;;;;6.79;62.81;98108.72;4973538;28;20509;-76
2024/01/25 03:53:09;;;;;;;0.90;0.90;;;;;;;6.76;63.07;98127.59;4977011;28;20039;-76
2024/01/25 03:55:37;;;;;;;0.93;0.93;;;;;;;6.76;62.87;98138.19;4974235;28;20053;-77
2024/01/25 03:58:05;;;;;;;0.95;0.95;;;;;;;6.71;63.14;98141.34;4974203;28;20046;-74
2024/01/25 04:00:32;;;;;;;1.00;1.00;;;;;;;6.73;62.68;98139.38;4971431;28;20054;-75
2024/01/25 04:03:00;;;;;;;0.85;0.85;;;;;;;6.70;62.59;98150.28;4971657;28;20558;-72
2024/01/25 04:05:30;;;;;;;1.08;1.08;;;;;;;6.72;62.80;98150.13;4979677;28;20486;-74
2024/01/25 04:07:57;;;;;;;0.98;0.98;;;;;;;6.69;62.57;98156.56;4989511;28;20126;-73
2024/01/25 04:10:25;;;;;;;1.17;1.17;;;;;;;6.69;62.43;98153.09;4975012;28;20097;-76
2024/01/25 04:12:53;;;;;;;0.95;0.95;;;;;;;6.68;62.45;98154.91;4994656;28;20133;-76
2024/01/25 04:15:23;;;;;;;1.25;1.25;;;;;;;6.66;62.50;98154.22;4985353;28;20054;-78
2024/01/25 04:17:50;;;;;;;1.02;1.02;;;;;;;6.68;62.28;98160.22;4974733;28;20047;-76
2024/01/25 04:20:18;;;;;;;1.15;1.15;;;;;;;6.72;61.88;98169.53;4969371;28;20579;-76
2024/01/25 04:22:47;;;;;;;1.00;1.00;;;;;;;6.70;62.31;98174.16;4974927;28;20043;-75
2024/01/25 04:25:15;;;;;;;1.10;1.10;;;;;;;6.68;62.37;98169.97;4977360;28;20050;-75
2024/01/25 04:27:43;;;;;;;1.02;1.02;;;;;;;6.65;62.50;98163.16;4987837;28;20061;-76
2024/01/25 04:30:11;;;;;;;1.10;1.10;;;;;;;6.68;62.50;98160.22;4993820;28;20490;-75
2024/01/25 04:32:38;;;;;;;1.20;1.20;;;;;;;6.59;62.58;98153.19;4994007;28;20046;-75
2024/01/25 04:35:06;;;;;;;0.40;0.40;;;;;;;6.54;62.82;98177.50;4993857;28;20418;-75
2024/01/25 04:37:34;;;;;;;0.88;0.88;;;;;;;6.51;63.03;98174.34;4993891;28;20550;-75
2024/01/25 04:40:05;;;;;;;1.30;1.30;;;;;;;6.54;63.07;98180.16;4987967;28;20054;-75
2024/01/25 04:42:32;;;;;;;0.77;0.77;;;;;;;6.54;63.13;98189.97;4973972;28;20043;-75
2024/01/25 04:45:00;;;;;;;0.95;0.95;;;;;;;6.52;63.00;98197.22;4974743;28;20567;-76
2024/01/25 04:47:27;;;;;;;1.05;1.05;;;;;;;6.55;63.08;98204.84;4974758;28;20057;-76
2024/01/25 04:49:55;;;;;;;0.70;0.70;;;;;;;6.58;63.02;98215.16;4974738;28;20510;-76
2024/01/25 04:52:23;;;;;;;1.10;1.10;;;;;;;6.57;63.05;98222.28;4974574;28;20047;-76
2024/01/25 04:54:51;;;;;;;0.90;0.90;;;;;;;6.58;63.06;98223.13;4974235;28;20047;-75
2024/01/25 04:57:19;;;;;;;0.95;0.95;;;;;;;6.59;63.15;98233.59;4974383;28;20047;-75
2024/01/25 04:59:47;;;;;;;0.90;0.90;;;;;;;6.62;62.64;98224.50;4972941;28;20050;-75
2024/01/25 05:02:15;;;;;;;0.93;0.93;;;;;;;6.63;62.63;98221.69;4974238;28;20043;-75
2024/01/25 05:04:42;;;;;;;1.50;1.50;;;;;;;6.64;62.93;98235.78;4974299;28;20043;-76
2024/01/25 05:07:13;;;;;;;0.70;0.70;;;;;;;6.67;63.22;98240.75;4974877;28;20046;-76
2024/01/25 05:09:41;;;;;;;0.93;0.93;;;;;;;6.66;63.14;98240.91;4973861;28;20572;-76
2024/01/25 05:12:08;;;;;;;0.93;0.93;;;;;;;6.69;63.02;98243.25;4974023;28;20051;-76
2024/01/25 05:14:37;;;;;;;1.42;1.42;;;;;;;6.65;63.56;98258.66;4976262;28;20486;-76
2024/01/25 05:17:05;;;;;;;0.90;0.90;;;;;;;6.68;63.50;98260.16;4972027;28;20154;-75
2024/01/25 05:19:33;;;;;;;0.98;0.98;;;;;;;6.63;63.74;98255.34;4972897;28;20078;-75
2024/01/25 05:22:01;;;;;;;0.82;0.82;;;;;;;6.72;63.67;98270.31;4973579;28;20059;-75
2024/01/25 05:24:29;;;;;;;0.55;0.50;;;;;;;6.76;63.14;98266.34;4973176;28;20047;-75
2024/01/25 05:26:56;;;;;;;1.10;1.10;;;;;;;6.74;63.29;98273.66;4973107;28;20130;-75
2024/01/25 05:29:24;;;;;;;1.00;1.00;;;;;;;6.68;63.05;98274.25;4962151;28;20058;-77
2024/01/25 05:31:53;;;;;;;0.40;0.40;;;;;;;6.73;63.01;98279.13;4973362;28;20415;-74
2024/01/25 05:34:20;;;;;;;0.60;0.60;;;;;;;6.75;62.46;98280.59;4998020;23;20512;-72
2024/01/25 05:36:48;;;;;;;1.00;1.00;;;;;;;6.66;62.79;98272.75;4972412;28;20050;-72
2024/01/25 05:39:16;;;;;;;1.10;1.10;;;;;;;6.68;62.22;98278.72;4971703;28;20081;-73
2024/01/25 05:41:44;;;;;;;1.02;1.02;;;;;;;6.70;61.35;98274.94;4971564;28;20073;-73
2024/01/25 05:44:13;;;;;;;0.90;0.90;;;;;;;6.66;60.62;98280.69;4966273;28;20043;-70
2024/01/25 05:46:40;;;;;;;1.02;1.02;;;;;;;6.64;60.31;98294.13;4950883;28;20070;-72
2024/01/25 05:49:10;;;;;;;0.95;0.95;;;;;;;6.74;59.25;98280.78;4952783;28;20051;-69
2024/01/25 05:51:38;;;;;;;0.75;0.75;;;;;;;6.73;59.56;98306.47;4952302;28;20069;-69
2024/01/25 05:54:05;;;;;;;1.00;1.00;;;;;;;6.69;59.42;98313.06;4952771;28;20118;-71
2024/01/25 05:56:33;;;;;;;0.98;0.98;;;;;;;6.74;59.50;98312.63;4952920;28;20046;-73
2024/01/25 05:59:00;;;;;;;0.30;0.30;;;;;;;6.69;59.67;98313.06;4952257;28;20406;-70
2024/01/25 06:01:28;;;;;;;0.95;0.95;;;;;;;6.74;59.94;98329.38;4949658;28;20054;-71
2024/01/25 06:03:56;;;;;;;0.98;0.98;;;;;;;6.79;59.85;98328.91;4951882;28;20074;-70
2024/01/25 06:06:25;;;;;;;1.05;1.05;;;;;;;6.71;60.19;98316.41;4948025;28;20051;-72
2024/01/25 06:08:53;;;;;;;1.02;1.02;;;;;;;6.72;60.15;98326.03;4948222;28;20099;-71
2024/01/25 06:11:37;;;;;;;1.02;1.02;;;;;;;6.69;60.08;98334.28;4945735;28;20054;-71
2024/01/25 06:14:06;;;;;;;1.42;1.42;;;;;;;6.73;60.02;98325.03;4952803;28;20110;-71
2024/01/25 06:16:33;;;;;;;1.20;1.20;;;;;;;6.66;60.22;98336.38;4950019;28;20070;-71
2024/01/25 06:19:01;;;;;;;1.30;1.25;;;;;;;6.74;60.25;98345.28;4949996;28;20051;-71
2024/01/25 06:21:30;;;;;;;1.15;1.15;;;;;;;6.81;60.33;98337.53;4943109;28;20043;-71
2024/01/25 06:24:00;;;;;;;0.90;0.90;;;;;;;6.75;60.74;98333.66;4951530;28;20051;-70
2024/01/25 06:26:27;;;;;;;1.10;1.10;;;;;;;6.77;61.14;98338.81;4952811;28;20040;-71
2024/01/25 06:28:55;;;;;;;0.52;0.52;;;;;;;6.74;61.33;98339.16;4952270;28;20596;-71
2024/01/25 06:31:22;;;;;;;1.10;1.10;;;;;;;6.75;61.82;98346.13;4951176;28;20054;-71
2024/01/25 06:33:52;;;;;;;0.57;0.57;;;;;;;6.80;61.59;98349.97;4949235;28;20700;-71
2024/01/25 06:36:20;;;;;;;0.75;0.75;;;;;;;6.79;61.86;98345.66;4952172;28;20054;-71
2024/01/25 06:38:49;;;;;;;0.50;0.50;;;;;;;6.76;61.97;98355.72;4954366;29;20427;-71
2024/01/25 06:41:17;;;;;;;0.93;0.93;;;;;;;6.79;61.44;98348.31;4955653;28;20043;-71
2024/01/25 06:43:44;;;;;;;0.90;0.82;;;;;;;6.76;61.69;98351.25;4955954;28;20126;-71
2024/01/25 06:46:12;;;;;;;1.30;1.30;;;;;;;6.75;61.66;98349.56;4954471;28;20039;-71
2024/01/25 06:48:39;;;;;;;1.08;1.08;;;;;;;6.79;62.23;98369.53;4956265;28;20047;-71
2024/01/25 06:51:07;;;;;;;1.00;1.00;;;;;;;6.88;62.05;98363.31;4954068;28;20051;-71
2024/01/25 06:53:35;;;;;;;1.17;1.17;;;;;;;6.81;62.08;98364.06;4956010;28;20058;-70
2024/01/25 06:56:04;;;;;;;1.10;1.10;;;;;;;6.73;61.38;98361.34;4953172;28;20053;-71
2024/01/25 06:58:32;;;;;;;1.15;1.15;;;;;;;6.76;61.81;98371.63;4956060;28;20122;-73
2024/01/25 07:01:00;;;;;;;1.10;1.10;;;;;;;6.68;61.42;98369.75;4954520;28;20098;-73
2024/01/25 07:03:28;;;;;;;0.40;0.40;;;;;;;6.62;60.74;98365.06;4951539;28;20462;-72
2024/01/25 07:05:56;;;;;;;0.93;0.93;;;;;;;6.61;61.03;98366.03;4950919;29;20044;-71
2024/01/25 07:08:24;;;;;;;1.10;1.10;;;;;;;6.78;60.39;98357.25;4950669;28;20517;-71
2024/01/25 07:10:52;;;;;;;1.00;1.00;;;;;;;6.71;60.56;98363.31;4951801;28;20050;-71
2024/01/25 07:13:21;;;;;;;1.00;1.00;;;;;;;6.64;60.84;98369.19;4955991;28;20043;-71
2024/01/25 07:15:50;;;;;;;1.05;1.05;;;;;;;6.54;61.34;98370.28;4954609;28;20082;-72
2024/01/25 07:18:19;;;;;;;0.85;0.85;;;;;;;6.61;61.65;98374.00;4953672;28;20194;-73
2024/01/25 07:20:47;;;;;;;0.95;0.95;;;;;;;6.60;61.83;98378.47;4954634;28;20066;-71
2024/01/25 07:23:14;;;;;;;1.25;1.25;;;;;;;6.63;61.98;98383.47;4947502;29;20134;-71
2024/01/25 07:25:42;;;;;;;1.00;1.00;;;;;;;6.69;62.24;98384.69;4954226;28;20043;-72
2024/01/25 07:28:10;;;;;;;1.63;1.63;;;;;;;6.67;62.43;98386.63;4951431;28;20090;-71
2024/01/25 07:30:39;;;;;;;1.05;1.05;;;;;;;6.60;62.64;98389.06;4952701;28;20051;-71
2024/01/25 07:33:06;;;;;;;1.27;1.27;;;;;;;6.49;63.15;98404.34;4957703;28;20047;-71
2024/01/25 07:35:35;;;;;;;1.05;1.05;;;;;;;6.47;63.23;98404.50;4955276;28;20035;-71
2024/01/25 07:38:03;;;;;;;0.80;0.80;;;;;;;6.42;62.68;98400.63;4952238;28;20054;-71
2024/01/25 07:40:30;;;;;;;0.75;0.75;;;;;;;6.45;62.02;98408.28;4954272;28;20047;-71
2024/01/25 07:42:58;;;;;;;1.23;1.23;;;;;;;6.43;61.94;98416.41;4950501;28;20048;-71
2024/01/25 07:45:26;;;;;;;1.17;1.17;;;;;;;6.49;61.70;98420.25;4956673;28;20050;-71
2024/01/25 07:47:55;;;;;;;0.95;0.95;;;;;;;6.48;61.46;98415.94;4954830;28;20059;-71
2024/01/25 07:50:35;;;;;;;0.70;0.70;;;;;;;6.56;61.02;98406.25;4948322;28;20066;-71
2024/01/25 07:53:03;;;;;;;0.77;0.77;;;;;;;6.54;61.20;98412.72;4958346;28;20054;-71
2024/01/25 07:55:31;;;;;;;1.00;1.00;;;;;;;6.52;61.43;98409.38;4955163;28;20035;-73
2024/01/25 07:57:58;;;;;;;0.85;0.85;;;;;;;6.63;61.25;98401.22;4952567;28;20126;-72
2024/01/25 08:00:26;;;;;;;1.00;1.00;;;;;;;6.65;61.37;98423.09;4953462;28;20051;-71
2024/01/25 08:02:55;;;;;;;0.98;0.98;;;;;;;6.55;61.97;98438.22;4948563;28;20039;-71
2024/01/25 08:05:22;;;;;;;1.00;1.00;;;;;;;6.50;61.96;98430.72;4952527;28;20050;-71
2024/01/25 08:08:00;;;;;;;0.20;0.20;;;;;;;6.55;62.47;98423.16;4954672;29;20104;-71
2024/01/25 08:10:28;;;;;;;1.20;1.20;;;;;;;6.50;62.73;98422.78;4953180;28;20058;-71
2024/01/25 08:12:57;;;;;;;0.90;0.90;;;;;;;6.54;62.80;98428.63;4954630;29;20127;-71
2024/01/25 08:15:34;;;;;;;1.13;1.13;;;;;;;6.45;63.46;98432.97;4952376;28;20483;-71
2024/01/25 08:18:03;;;;;;;0.30;0.30;;;;;;;6.46;63.49;98432.00;4954515;28;20443;-71
2024/01/25 08:20:32;;;;;;;0.52;0.50;;;;;;;6.39;63.92;98425.63;4954022;28;20447;-71
2024/01/25 08:23:00;;;;;;;0.95;0.95;;;;;;;6.43;63.64;98428.81;4937486;29;20047;-71
2024/01/25 08:25:27;;;;;;;1.15;1.15;;;;;;;6.39;63.81;98433.56;4948465;28;20055;-71
2024/01/25 08:27:56;;;;;;;0.80;0.80;;;;;;;6.36;64.04;98433.88;4948282;28;20054;-71
2024/01/25 08:30:23;;;;;;;1.00;1.00;;;;;;;6.39;64.25;98446.00;4950252;28;20043;-71
2024/01/25 08:32:51;;;;;;;0.38;0.38;;;;;;;6.45;63.83;98445.41;4949481;28;20406;-71
2024/01/25 08:35:21;;;;;;;0.98;0.98;;;;;;;6.42;63.58;98443.91;4953092;28;20051;-71
2024/01/25 08:37:49;;;;;;;0.93;0.93;;;;;;;6.40;63.50;98445.03;4953681;28;20050;-71
2024/01/25 08:40:17;;;;;;;0.70;0.70;;;;;;;6.38;63.63;98447.81;4951523;28;20126;-72
2024/01/25 08:42:45;;;;;;;1.00;1.00;;;;;;;6.35;63.71;98439.31;4943876;29;20051;-70
2024/01/25 08:45:13;;;;;;;1.15;1.15;;;;;;;6.42;63.50;98443.06;4951553;28;20043;-70
2024/01/25 08:47:45;;;;;;;0.98;0.98;;;;;;;6.44;63.26;98433.13;4953486;28;20078;-70
2024/01/25 08:50:13;;;;;;;1.17;1.17;;;;;;;6.39;63.67;98430.94;4952601;28;20051;-71
2024/01/25 08:52:42;;;;;;;1.17;1.17;;;;;;;6.58;63.19;98435.28;4954880;28;20070;-71
2024/01/25 08:55:10;;;;;;;1.10;1.10;;;;;;;6.50;63.19;98436.03;4953377;28;20491;-71
2024/01/25 08:57:39;;;;;;;0.88;0.88;;;;;;;6.42;63.37;98443.06;4949578;28;20122;-71
2024/01/25 09:00:10;;;;;;;0.90;0.90;;;;;;;6.39;62.52;98441.53;4932022;28;20055;-71
2024/01/25 09:02:38;;;;;;;0.88;0.88;;;;;;;6.51;62.40;98458.09;4947493;28;20122;-71
2024/01/25 09:05:06;;;;;;;0.98;0.98;;;;;;;6.46;62.37;98455.03;4951231;28;20484;-71
2024/01/25 09:07:34;;;;;;;0.88;0.88;;;;;;;6.53;62.54;98451.66;4950401;28;20507;-71
2024/01/25 09:10:05;;;;;;;0.90;0.90;;;;;;;6.41;61.72;98452.84;4948499;28;20054;-72
2024/01/25 09:12:33;;;;;;;1.15;1.15;;;;;;;6.43;61.88;98458.81;4951054;28;20114;-71
2024/01/25 09:15:01;;;;;;;0.73;0.73;;;;;;;6.42;61.54;98451.84;4952413;28;20073;-71
2024/01/25 09:17:29;;;;;;;0.75;0.75;;;;;;;6.49;61.75;98473.31;4953241;28;20050;-72
2024/01/25 09:19:59;;;;;;;0.82;0.82;;;;;;;6.52;61.25;98467.72;4951840;28;20039;-71
2024/01/25 09:22:28;;;;;;;0.95;0.95;;;;;;;6.54;61.58;98468.41;4951735;28;20070;-71
2024/01/25 09:24:56;;;;;;;0.85;0.85;;;;;;;6.54;61.89;98469.22;4952956;28;20062;-71
2024/01/25 09:27:24;;;;;;;0.88;0.88;;;;;;;6.56;62.05;98455.81;4952356;28;20051;-71
2024/01/25 09:29:52;;;;;;;1.17;1.17;;;;;;;6.66;61.79;98461.06;4946412;28;20046;-72
2024/01/25 09:32:20;;;;;;;1.08;1.08;;;;;;;6.73;61.81;98467.47;4949540;28;20038;-72
2024/01/25 09:34:48;;;;;;;0.80;0.80;;;;;;;6.85;61.78;98476.88;4952450;28;20078;-72
2024/01/25 09:37:17;;;;;;;1.02;1.02;;;;;;;6.96;60.90;98474.81;4951328;28;20528;-72
2024/01/25 09:39:45;;;;;;;0.82;0.82;;;;;;;6.92;60.92;98478.78;4952645;28;20047;-72
2024/01/25 09:42:13;;;;;;;0.82;0.82;;;;;;;6.90;61.22;98474.59;4951061;28;20075;-72
2024/01/25 09:44:44;;;;;;;0.88;0.88;;;;;;;6.98;60.83;98479.97;4950083;28;20126;-72
2024/01/25 09:47:12;;;;;;;0.75;0.75;;;;;;;7.07;60.85;98471.13;4951632;28;20050;-72
2024/01/25 09:49:40;;;;;;;0.85;0.85;;;;;;;7.10;59.56;98476.13;4934311;28;20134;-72
2024/01/25 09:52:11;;;;;;;0.95;0.95;;;;;;;7.08;59.82;98471.94;4953972;28;20070;-71
2024/01/25 09:54:39;;;;;;;0.32;0.32;;;;;;;7.14;59.52;98481.97;4952686;28;20407;-72
2024/01/25 09:57:11;;;;;;;1.00;1.00;;;;;;;7.06;59.68;98484.56;4948756;28;20047;-72
2024/01/25 09:59:39;;;;;;;0.98;0.98;;;;;;;7.01;59.96;98482.34;4951850;28;20047;-72
2024/01/25 10:02:08;;;;;;;0.43;0.43;;;;;;;7.04;59.87;98468.78;4952288;29;20462;-72
2024/01/25 10:04:36;;;;;;;1.17;1.17;;;;;;;7.02;59.72;98477.88;4951530;28;20061;-72
2024/01/25 10:07:04;;;;;;;0.90;0.90;;;;;;;6.97;59.44;98492.41;4952017;28;20072;-72
2024/01/25 10:09:39;;;;;;;0.85;0.85;;;;;;;6.97;59.65;98492.41;4948431;29;20081;-72
2024/01/25 10:12:07;;;;;;;0.77;0.77;;;;;;;7.02;60.07;98484.03;4949992;28;20078;-72
2024/01/25 10:14:45;;;;;;;;;;;;;;;7.07;60.06;98491.50;4944864;28;20047;-70
2024/01/25 10:17:14;;;;;;;1.10;1.10;;;;;;;7.15;59.94;98473.03;4951097;28;20032;-72
2024/01/25 10:19:43;;;;;;;0.88;0.88;;;;;;;7.11;59.80;98476.97;4951867;28;20423;-70
2024/01/25 10:22:12;;;;;;;0.82;0.82;;;;;;;7.02;59.77;98468.09;4951633;28;20131;-73
2024/01/25 10:24:42;;;;;;;0.77;0.77;;;;;;;7.05;59.54;98475.78;4952712;28;20035;-70
2024/01/25 10:27:12;;;;;;;0.77;0.77;;;;;;;6.94;59.83;98476.81;4951915;28;20106;-71
2024/01/25 10:29:39;;;;;;;0.40;0.40;;;;;;;6.94;60.17;98470.66;4944976;28;20461;-71
2024/01/25 10:32:09;;;;;;;0.85;0.85;;;;;;;7.08;60.09;98472.78;4949207;28;20126;-70
2024/01/25 10:34:38;;;;;;;1.08;1.08;;;;;;;7.12;59.58;98466.22;4951822;28;20499;-70
2024/01/25 10:37:08;;;;;;;1.00;1.00;;;;;;;7.15;58.82;98465.06;4952476;28;20525;-70
2024/01/25 10:39:36;;;;;;;1.05;1.05;;;;;;;7.26;58.91;98470.16;4952106;28;20122;-70
2024/01/25 10:42:06;;;;;;;0.93;0.93;;;;;;;7.39;57.75;98467.94;4953658;28;20276;-70
2024/01/25 10:44:33;;;;;;;1.17;1.17;;;;;;;7.40;58.04;98468.75;4952585;28;20495;-70
2024/01/25 10:47:01;;;;;;;0.75;0.75;;;;;;;7.42;58.02;98457.00;4950653;29;20499;-70
2024/01/25 10:49:30;;;;;;;0.70;0.70;;;;;;;7.34;57.99;98472.88;4951779;28;20052;-70
2024/01/25 10:51:59;;;;;;;0.75;0.75;;;;;;;7.39;58.15;98470.59;4952395;28;20057;-70
2024/01/25 10:54:27;;;;;;;1.02;1.02;;;;;;;7.46;58.23;98469.00;4950238;28;20051;-70
2024/01/25 10:56:55;;;;;;;0.30;0.30;;;;;;;7.41;58.28;98473.94;4951147;28;20403;-70
2024/01/25 10:59:25;;;;;;;1.08;1.08;;;;;;;7.44;57.96;98465.66;4951185;28;20069;-70
2024/01/25 11:01:55;;;;;;;1.02;1.02;;;;;;;7.36;58.24;98473.56;4951564;28;20106;-70
2024/01/25 11:04:22;;;;;;;1.02;1.02;;;;;;;7.29;58.77;98475.16;4949706;28;20139;-70
2024/01/25 11:06:50;;;;;;;1.00;1.00;;;;;;;7.34;58.95;98478.19;4951980;28;20062;-70
2024/01/25 11:09:21;;;;;;;0.95;0.95;;;;;;;7.47;58.55;98483.13;4950782;28;20044;-70
2024/01/25 11:11:49;;;;;;;1.00;1.00;;;;;;;7.38;58.54;98475.06;4949499;28;20055;-70
2024/01/25 11:14:17;;;;;;;0.85;0.85;;;;;;;7.32;58.40;98464.22;4951535;28;20048;-73
2024/01/25 11:16:46;;;;;;;0.93;0.93;;;;;;;7.30;58.96;98477.66;4952074;28;20063;-70
2024/01/25 11:19:18;;;;;;;1.42;1.42;;;;;;;7.34;58.69;98476.38;4948806;28;20147;-70
2024/01/25 11:21:47;;;;;;;0.90;0.90;;;;;;;7.26;58.38;98480.78;4951343;28;20114;-73
2024/01/25 11:24:15;;;;;;;1.10;1.10;;;;;;;7.24;58.58;98475.63;4953908;28;20055;-71
2024/01/25 11:26:45;;;;;;;1.95;1.95;;;;;;;7.16;59.03;98475.53;4955466;28;20039;-70
2024/01/25 11:29:16;;;;;;;0.60;0.60;;;;;;;7.20;59.33;98479.56;4954858;28;20047;-71
2024/01/25 11:31:44;;;;;;;1.05;1.05;;;;;;;7.31;58.95;98479.31;4954397;28;20043;-70
2024/01/25 11:34:12;;;;;;;1.17;1.17;;;;;;;7.43;58.96;98477.28;4955242;28;20059;-72
2024/01/25 11:36:41;;;;;;;0.70;0.70;;;;;;;7.32;59.09;98482.81;4955902;28;20092;-72
2024/01/25 11:39:09;;;;;;;0.47;0.47;;;;;;;7.41;58.39;98484.56;4958125;28;20246;-74
2024/01/25 11:41:37;;;;;;;1.05;1.05;;;;;;;7.36;58.54;98493.00;4954754;28;20051;-71
2024/01/25 11:44:06;;;;;;;1.10;1.10;;;;;;;7.34;58.96;98481.69;4955157;28;20517;-71
2024/01/25 11:46:34;;;;;;;0.65;0.65;;;;;;;7.50;58.73;98483.63;4952241;28;20047;-71